SWQ3422 KAEX-KEWR
Flight info
| Callsign | SWQ3422 |
|---|---|
| Flight time | 2h 41m |
| Altitude | 37000 |
| Route | SUTTN J29 CARIN MEMFS Q29 DORET J584 SLT FQM3 |
| Aircraft | B738/M-SDE2E3FGHIRWXY/LB1 |
Departure
| Time | 2026-04-12 01:24 |
|---|---|
| Airport | Alexandria International Airport (KAEX) |
Arrival
| Time | 2026-04-12 04:05 |
|---|---|
| Airport | Newark Liberty International Airport (KEWR) |
| Time | Latitude | Longitude | Altitude | Speed | Heading |
|---|---|---|---|---|---|
| 2026-04-12 00:51 | 31.32254 | -92.54258 | 95 ft | 0 kts | 69° |
| 2026-04-12 01:11 | 31.32253 | -92.54261 | 95 ft | 3 kts | 69° |
| 2026-04-12 01:11 | 31.32244 | -92.54290 | 95 ft | 4 kts | 69° |
| 2026-04-12 01:12 | 31.32234 | -92.54319 | 97 ft | 4 kts | 69° |
| 2026-04-12 01:12 | 31.32224 | -92.54349 | 94 ft | 4 kts | 63° |
| 2026-04-12 01:12 | 31.32210 | -92.54371 | 95 ft | 4 kts | 17° |
| 2026-04-12 01:12 | 31.32198 | -92.54368 | 94 ft | 4 kts | 324° |
| 2026-04-12 01:13 | 31.32176 | -92.54349 | 94 ft | 4 kts | 322° |
| 2026-04-12 01:13 | 31.32159 | -92.54334 | 93 ft | 0 kts | 324° |
| 2026-04-12 01:16 | 31.32160 | -92.54335 | 93 ft | 1 kts | 324° |
| 2026-04-12 01:16 | 31.32167 | -92.54342 | 94 ft | 2 kts | 324° |
| 2026-04-12 01:16 | 31.32188 | -92.54359 | 94 ft | 6 kts | 323° |
| 2026-04-12 01:17 | 31.32230 | -92.54395 | 96 ft | 9 kts | 323° |
| 2026-04-12 01:17 | 31.32286 | -92.54444 | 95 ft | 11 kts | 323° |
| 2026-04-12 01:17 | 31.32356 | -92.54493 | 95 ft | 12 kts | 345° |
| 2026-04-12 01:17 | 31.32444 | -92.54487 | 95 ft | 13 kts | 358° |
| 2026-04-12 01:18 | 31.32526 | -92.54538 | 94 ft | 15 kts | 322° |
| 2026-04-12 01:18 | 31.32615 | -92.54614 | 93 ft | 17 kts | 324° |
| 2026-04-12 01:18 | 31.32709 | -92.54694 | 93 ft | 17 kts | 324° |
| 2026-04-12 01:18 | 31.32801 | -92.54772 | 95 ft | 17 kts | 324° |
| 2026-04-12 01:19 | 31.32897 | -92.54853 | 94 ft | 18 kts | 324° |
| 2026-04-12 01:19 | 31.32997 | -92.54937 | 94 ft | 17 kts | 323° |
| 2026-04-12 01:19 | 31.33092 | -92.55019 | 93 ft | 17 kts | 324° |
| 2026-04-12 01:19 | 31.33190 | -92.55102 | 95 ft | 18 kts | 325° |
| 2026-04-12 01:20 | 31.33296 | -92.55190 | 94 ft | 19 kts | 324° |
| 2026-04-12 01:20 | 31.33403 | -92.55282 | 95 ft | 19 kts | 324° |
| 2026-04-12 01:20 | 31.33507 | -92.55370 | 92 ft | 18 kts | 324° |
| 2026-04-12 01:20 | 31.33616 | -92.55460 | 92 ft | 20 kts | 324° |
| 2026-04-12 01:21 | 31.33732 | -92.55558 | 93 ft | 21 kts | 324° |
| 2026-04-12 01:21 | 31.33847 | -92.55657 | 93 ft | 12 kts | 320° |
| 2026-04-12 01:21 | 31.33869 | -92.55743 | 92 ft | 11 kts | 258° |
| 2026-04-12 01:21 | 31.33836 | -92.55811 | 92 ft | 3 kts | 233° |
| 2026-04-12 01:22 | 31.33835 | -92.55814 | 93 ft | 0 kts | 233° |
| 2026-04-12 01:23 | 31.33834 | -92.55815 | 93 ft | 1 kts | 233° |
| 2026-04-12 01:23 | 31.33815 | -92.55845 | 93 ft | 8 kts | 233° |
| 2026-04-12 01:23 | 31.33773 | -92.55895 | 94 ft | 7 kts | 190° |
| 2026-04-12 01:23 | 31.33723 | -92.55862 | 93 ft | 12 kts | 143° |
| 2026-04-12 01:24 | 31.33551 | -92.55719 | 91 ft | 65 kts | 144° |
| 2026-04-12 01:24 | 31.32976 | -92.55230 | 94 ft | 137 kts | 144° |
| 2026-04-12 01:24 | 31.32080 | -92.54472 | 370 ft | 174 kts | 144° |
| 2026-04-12 01:24 | 31.31057 | -92.53678 | 1263 ft | 176 kts | 143° |
| 2026-04-12 01:25 | 31.30091 | -92.52809 | 2278 ft | 174 kts | 141° |
| 2026-04-12 01:25 | 31.29120 | -92.51890 | 2957 ft | 192 kts | 141° |
| 2026-04-12 01:25 | 31.28023 | -92.50847 | 3164 ft | 215 kts | 141° |
| 2026-04-12 01:25 | 31.26826 | -92.49707 | 3583 ft | 226 kts | 141° |
| 2026-04-12 01:26 | 31.25594 | -92.48530 | 4138 ft | 230 kts | 140° |
| 2026-04-12 01:26 | 31.24668 | -92.47017 | 4691 ft | 237 kts | 107° |
| 2026-04-12 01:26 | 31.24582 | -92.45736 | 5046 ft | 245 kts | 86° |
| 2026-04-12 01:26 | 31.25166 | -92.43771 | 5362 ft | 269 kts | 60° |
| 2026-04-12 01:27 | 31.26421 | -92.42117 | 6101 ft | 276 kts | 39° |
| 2026-04-12 01:27 | 31.28064 | -92.40892 | 6930 ft | 278 kts | 31° |
| 2026-04-12 01:27 | 31.29764 | -92.39847 | 7633 ft | 282 kts | 28° |
| 2026-04-12 01:27 | 31.31531 | -92.38808 | 8330 ft | 286 kts | 28° |
| 2026-04-12 01:28 | 31.33324 | -92.37755 | 9036 ft | 290 kts | 27° |
| 2026-04-12 01:28 | 31.35156 | -92.36665 | 9770 ft | 294 kts | 27° |
| 2026-04-12 01:28 | 31.36967 | -92.35577 | 10373 ft | 301 kts | 27° |
| 2026-04-12 01:28 | 31.38923 | -92.34391 | 10557 ft | 324 kts | 27° |
| 2026-04-12 01:29 | 31.40960 | -92.33146 | 10711 ft | 346 kts | 27° |
| 2026-04-12 01:29 | 31.43151 | -92.31798 | 10871 ft | 365 kts | 27° |
| 2026-04-12 01:29 | 31.45453 | -92.30376 | 11052 ft | 382 kts | 27° |
| 2026-04-12 01:29 | 31.47823 | -92.28906 | 11489 ft | 388 kts | 27° |
| 2026-04-12 01:30 | 31.50217 | -92.27418 | 12077 ft | 391 kts | 27° |
| 2026-04-12 01:30 | 31.52624 | -92.25919 | 12641 ft | 394 kts | 27° |
| 2026-04-12 01:30 | 31.55054 | -92.24404 | 13185 ft | 397 kts | 27° |
| 2026-04-12 01:30 | 31.57504 | -92.22875 | 13709 ft | 401 kts | 27° |
| 2026-04-12 01:31 | 31.59976 | -92.21331 | 14203 ft | 404 kts | 27° |
| 2026-04-12 01:31 | 31.62465 | -92.19776 | 14679 ft | 407 kts | 27° |
| 2026-04-12 01:31 | 31.64968 | -92.18211 | 15152 ft | 409 kts | 27° |
| 2026-04-12 01:31 | 31.67489 | -92.16633 | 15591 ft | 412 kts | 27° |
| 2026-04-12 01:32 | 31.70029 | -92.15043 | 16044 ft | 415 kts | 27° |
| 2026-04-12 01:32 | 31.72589 | -92.13440 | 16476 ft | 418 kts | 27° |
| 2026-04-12 01:32 | 31.75166 | -92.11824 | 16902 ft | 421 kts | 27° |
| 2026-04-12 01:32 | 31.77762 | -92.10195 | 17335 ft | 424 kts | 27° |
| 2026-04-12 01:33 | 31.80370 | -92.08559 | 17764 ft | 427 kts | 27° |
| 2026-04-12 01:33 | 31.82998 | -92.06908 | 18168 ft | 429 kts | 27° |
| 2026-04-12 01:33 | 31.85640 | -92.05247 | 18562 ft | 432 kts | 27° |
| 2026-04-12 01:33 | 31.88300 | -92.03574 | 18914 ft | 434 kts | 27° |
| 2026-04-12 01:34 | 31.90969 | -92.01895 | 19282 ft | 436 kts | 27° |
| 2026-04-12 01:34 | 31.93651 | -92.00206 | 19651 ft | 438 kts | 27° |
| 2026-04-12 01:34 | 31.96344 | -91.98509 | 20008 ft | 440 kts | 27° |
| 2026-04-12 01:34 | 31.99048 | -91.96804 | 20348 ft | 442 kts | 27° |
| 2026-04-12 01:35 | 32.01764 | -91.95090 | 20688 ft | 444 kts | 27° |
| 2026-04-12 01:35 | 32.04495 | -91.93366 | 21037 ft | 446 kts | 27° |
| 2026-04-12 01:35 | 32.07239 | -91.91632 | 21380 ft | 448 kts | 27° |
| 2026-04-12 01:35 | 32.09989 | -91.89893 | 21701 ft | 450 kts | 27° |
| 2026-04-12 01:36 | 32.12754 | -91.88143 | 22022 ft | 452 kts | 26° |
| 2026-04-12 01:36 | 32.15530 | -91.86386 | 22349 ft | 454 kts | 26° |
| 2026-04-12 01:36 | 32.18322 | -91.84617 | 22664 ft | 456 kts | 26° |
| 2026-04-12 01:36 | 32.21119 | -91.82843 | 22982 ft | 458 kts | 26° |
| 2026-04-12 01:37 | 32.23932 | -91.81058 | 23274 ft | 460 kts | 26° |
| 2026-04-12 01:37 | 32.26754 | -91.79266 | 23568 ft | 462 kts | 26° |
| 2026-04-12 01:37 | 32.29588 | -91.77466 | 23845 ft | 464 kts | 26° |
| 2026-04-12 01:37 | 32.32435 | -91.75656 | 24083 ft | 465 kts | 26° |
| 2026-04-12 01:38 | 32.35287 | -91.73841 | 24347 ft | 466 kts | 26° |
| 2026-04-12 01:38 | 32.38143 | -91.72022 | 24609 ft | 467 kts | 26° |
| 2026-04-12 01:38 | 32.41009 | -91.70196 | 24854 ft | 468 kts | 26° |
| 2026-04-12 01:38 | 32.43878 | -91.68366 | 25090 ft | 470 kts | 26° |
| 2026-04-12 01:39 | 32.46758 | -91.66528 | 25320 ft | 471 kts | 26° |
| 2026-04-12 01:39 | 32.49646 | -91.64684 | 25557 ft | 472 kts | 26° |
| 2026-04-12 01:39 | 32.52538 | -91.62835 | 25777 ft | 473 kts | 25° |
| 2026-04-12 01:39 | 32.55447 | -91.60975 | 26010 ft | 475 kts | 25° |
| 2026-04-12 01:40 | 32.58353 | -91.59115 | 26226 ft | 476 kts | 25° |
| 2026-04-12 01:40 | 32.61273 | -91.57245 | 26441 ft | 477 kts | 25° |
| 2026-04-12 01:40 | 32.64202 | -91.55367 | 26699 ft | 479 kts | 25° |
| 2026-04-12 01:40 | 32.67128 | -91.53490 | 26922 ft | 480 kts | 25° |
| 2026-04-12 01:41 | 32.70071 | -91.51601 | 27140 ft | 481 kts | 25° |
| 2026-04-12 01:41 | 32.73017 | -91.49708 | 27351 ft | 482 kts | 25° |
| 2026-04-12 01:41 | 32.75973 | -91.47807 | 27552 ft | 483 kts | 25° |
| 2026-04-12 01:41 | 32.78926 | -91.45907 | 27776 ft | 484 kts | 25° |
| 2026-04-12 01:42 | 32.81887 | -91.43999 | 28072 ft | 482 kts | 25° |
| 2026-04-12 01:42 | 32.84828 | -91.42103 | 28399 ft | 480 kts | 25° |
| 2026-04-12 01:42 | 32.87758 | -91.40213 | 28712 ft | 479 kts | 24° |
| 2026-04-12 01:42 | 32.90691 | -91.38319 | 28994 ft | 478 kts | 24° |
| 2026-04-12 01:43 | 32.93613 | -91.36432 | 29294 ft | 478 kts | 24° |
| 2026-04-12 01:43 | 32.96525 | -91.34549 | 29608 ft | 476 kts | 24° |
| 2026-04-12 01:43 | 32.99432 | -91.32669 | 29913 ft | 475 kts | 24° |
| 2026-04-12 01:43 | 33.02336 | -91.30789 | 30234 ft | 474 kts | 24° |
| 2026-04-12 01:44 | 33.05235 | -91.28910 | 30500 ft | 473 kts | 24° |
| 2026-04-12 01:44 | 33.08109 | -91.27047 | 30760 ft | 473 kts | 24° |
| 2026-04-12 01:44 | 33.11012 | -91.25164 | 31026 ft | 472 kts | 24° |
| 2026-04-12 01:44 | 33.13893 | -91.23293 | 31286 ft | 471 kts | 23° |
| 2026-04-12 01:45 | 33.16774 | -91.21421 | 31555 ft | 470 kts | 23° |
| 2026-04-12 01:45 | 33.19645 | -91.19554 | 31831 ft | 469 kts | 23° |
| 2026-04-12 01:45 | 33.22506 | -91.17692 | 32093 ft | 468 kts | 23° |
| 2026-04-12 01:45 | 33.25366 | -91.15829 | 32340 ft | 468 kts | 23° |
| 2026-04-12 01:46 | 33.28217 | -91.13971 | 32602 ft | 467 kts | 23° |
| 2026-04-12 01:46 | 33.31066 | -91.12112 | 32862 ft | 466 kts | 22° |
| 2026-04-12 01:46 | 33.33910 | -91.10256 | 33115 ft | 465 kts | 22° |
| 2026-04-12 01:46 | 33.36747 | -91.08402 | 33357 ft | 464 kts | 22° |
| 2026-04-12 01:47 | 33.39579 | -91.06551 | 33606 ft | 463 kts | 22° |
| 2026-04-12 01:47 | 33.42405 | -91.04702 | 33857 ft | 463 kts | 22° |
| 2026-04-12 01:47 | 33.45228 | -91.02854 | 34080 ft | 462 kts | 22° |
| 2026-04-12 01:47 | 33.48048 | -91.01007 | 34287 ft | 462 kts | 22° |
| 2026-04-12 01:48 | 33.50861 | -90.99162 | 34495 ft | 461 kts | 22° |
| 2026-04-12 01:48 | 33.53673 | -90.97317 | 34701 ft | 460 kts | 22° |
| 2026-04-12 01:48 | 33.56479 | -90.95474 | 34862 ft | 460 kts | 22° |
| 2026-04-12 01:48 | 33.59287 | -90.93629 | 35057 ft | 460 kts | 22° |
| 2026-04-12 01:49 | 33.62092 | -90.91784 | 35209 ft | 460 kts | 22° |
| 2026-04-12 01:49 | 33.67717 | -90.88083 | 35219 ft | 461 kts | 22° |
| 2026-04-12 01:50 | 33.73331 | -90.84379 | 35213 ft | 459 kts | 22° |
| 2026-04-12 01:50 | 33.78927 | -90.80683 | 35217 ft | 458 kts | 22° |
| 2026-04-12 01:51 | 33.87300 | -90.75151 | 35229 ft | 459 kts | 22° |
| 2026-04-12 01:51 | 33.90107 | -90.73308 | 35369 ft | 459 kts | 22° |
| 2026-04-12 01:51 | 33.92901 | -90.71469 | 35618 ft | 457 kts | 22° |
| 2026-04-12 01:52 | 33.95644 | -90.69656 | 35859 ft | 455 kts | 22° |
| 2026-04-12 01:52 | 33.98451 | -90.67797 | 36036 ft | 455 kts | 22° |
| 2026-04-12 01:52 | 34.01222 | -90.65957 | 36188 ft | 455 kts | 22° |
| 2026-04-12 01:52 | 34.03953 | -90.64141 | 36361 ft | 454 kts | 22° |
| 2026-04-12 01:53 | 34.06715 | -90.62300 | 36556 ft | 453 kts | 22° |
| 2026-04-12 01:53 | 34.09505 | -90.60440 | 36733 ft | 452 kts | 22° |
| 2026-04-12 01:53 | 34.12221 | -90.58628 | 36888 ft | 452 kts | 22° |
| 2026-04-12 01:53 | 34.14966 | -90.56795 | 37043 ft | 451 kts | 22° |
| 2026-04-12 01:54 | 34.17715 | -90.54957 | 37214 ft | 450 kts | 22° |
| 2026-04-12 01:54 | 34.20456 | -90.53125 | 37233 ft | 452 kts | 22° |
| 2026-04-12 01:54 | 34.25956 | -90.49445 | 37244 ft | 452 kts | 22° |
| 2026-04-12 01:55 | 34.31439 | -90.45768 | 37243 ft | 450 kts | 22° |
| 2026-04-12 01:55 | 34.36906 | -90.42097 | 37245 ft | 449 kts | 22° |
| 2026-04-12 01:56 | 34.42360 | -90.38430 | 37235 ft | 448 kts | 22° |
| 2026-04-12 01:56 | 34.47802 | -90.34765 | 37236 ft | 447 kts | 22° |
| 2026-04-12 01:57 | 34.53227 | -90.31106 | 37234 ft | 446 kts | 22° |
| 2026-04-12 01:57 | 34.58651 | -90.27443 | 37236 ft | 446 kts | 22° |
| 2026-04-12 01:58 | 34.64067 | -90.23780 | 37230 ft | 446 kts | 22° |
| 2026-04-12 01:58 | 34.69487 | -90.20107 | 37233 ft | 446 kts | 22° |
| 2026-04-12 01:59 | 34.74912 | -90.16427 | 37239 ft | 447 kts | 22° |
| 2026-04-12 01:59 | 34.80382 | -90.12710 | 37231 ft | 448 kts | 22° |
| 2026-04-12 02:00 | 34.85821 | -90.09007 | 37238 ft | 448 kts | 22° |
| 2026-04-12 02:00 | 34.91238 | -90.05314 | 37244 ft | 449 kts | 22° |
| 2026-04-12 02:01 | 34.96732 | -90.01563 | 37242 ft | 450 kts | 22° |
| 2026-04-12 02:01 | 35.02186 | -89.97772 | 37238 ft | 454 kts | 26° |
| 2026-04-12 02:02 | 35.07359 | -89.93285 | 37242 ft | 458 kts | 30° |
| 2026-04-12 02:02 | 35.12457 | -89.88602 | 37248 ft | 459 kts | 30° |
| 2026-04-12 02:03 | 35.17538 | -89.83969 | 37245 ft | 458 kts | 30° |
| 2026-04-12 02:03 | 35.22700 | -89.79313 | 37246 ft | 458 kts | 30° |
| 2026-04-12 02:04 | 35.27833 | -89.74699 | 37250 ft | 458 kts | 30° |
| 2026-04-12 02:04 | 35.32958 | -89.70086 | 37250 ft | 457 kts | 30° |
| 2026-04-12 02:05 | 35.38044 | -89.65499 | 37251 ft | 457 kts | 30° |
| 2026-04-12 02:05 | 35.43157 | -89.60879 | 37256 ft | 457 kts | 30° |
| 2026-04-12 02:06 | 35.48305 | -89.56220 | 37253 ft | 456 kts | 30° |
| 2026-04-12 02:06 | 35.53376 | -89.51623 | 37258 ft | 456 kts | 30° |
| 2026-04-12 02:07 | 35.57645 | -89.47746 | 37260 ft | 456 kts | 30° |
| 2026-04-12 02:07 | 35.62741 | -89.43113 | 37260 ft | 455 kts | 30° |
| 2026-04-12 02:08 | 35.67830 | -89.38477 | 37261 ft | 455 kts | 30° |
| 2026-04-12 02:08 | 35.72913 | -89.33840 | 37259 ft | 455 kts | 30° |
| 2026-04-12 02:09 | 35.77993 | -89.29198 | 37261 ft | 454 kts | 30° |
| 2026-04-12 02:09 | 35.83062 | -89.24559 | 37258 ft | 454 kts | 30° |
| 2026-04-12 02:10 | 35.88125 | -89.19918 | 37259 ft | 454 kts | 30° |
| 2026-04-12 02:10 | 35.93190 | -89.15268 | 37257 ft | 453 kts | 30° |
| 2026-04-12 02:11 | 35.98245 | -89.10618 | 37259 ft | 453 kts | 30° |
| 2026-04-12 02:11 | 36.03295 | -89.05966 | 37257 ft | 453 kts | 30° |
| 2026-04-12 02:12 | 36.08341 | -89.01309 | 37252 ft | 453 kts | 30° |
| 2026-04-12 02:12 | 36.13385 | -88.96648 | 37249 ft | 452 kts | 30° |
| 2026-04-12 02:13 | 36.18420 | -88.91982 | 37233 ft | 452 kts | 30° |
| 2026-04-12 02:13 | 36.23452 | -88.87309 | 37234 ft | 452 kts | 30° |
| 2026-04-12 02:14 | 36.28475 | -88.82635 | 37240 ft | 451 kts | 30° |
| 2026-04-12 02:14 | 36.33493 | -88.77959 | 37231 ft | 451 kts | 30° |
| 2026-04-12 02:15 | 36.38507 | -88.73279 | 37243 ft | 451 kts | 30° |
| 2026-04-12 02:15 | 36.43520 | -88.68592 | 37247 ft | 451 kts | 30° |
| 2026-04-12 02:16 | 36.48531 | -88.63900 | 37259 ft | 451 kts | 30° |
| 2026-04-12 02:16 | 36.53537 | -88.59204 | 37270 ft | 451 kts | 30° |
| 2026-04-12 02:17 | 36.58547 | -88.54497 | 37272 ft | 451 kts | 30° |
| 2026-04-12 02:17 | 36.63552 | -88.49786 | 37280 ft | 451 kts | 30° |
| 2026-04-12 02:18 | 36.68555 | -88.45069 | 37278 ft | 451 kts | 30° |
| 2026-04-12 02:18 | 36.73562 | -88.40341 | 37279 ft | 452 kts | 30° |
| 2026-04-12 02:19 | 36.78565 | -88.35609 | 37274 ft | 452 kts | 30° |
| 2026-04-12 02:19 | 36.83576 | -88.30861 | 37273 ft | 452 kts | 30° |
| 2026-04-12 02:20 | 36.88584 | -88.26107 | 37270 ft | 452 kts | 30° |
| 2026-04-12 02:20 | 36.93594 | -88.21344 | 37262 ft | 453 kts | 30° |
| 2026-04-12 02:21 | 36.98603 | -88.16574 | 37263 ft | 452 kts | 30° |
| 2026-04-12 02:21 | 37.03609 | -88.11798 | 37266 ft | 452 kts | 30° |
| 2026-04-12 02:22 | 37.08613 | -88.07016 | 37275 ft | 453 kts | 30° |
| 2026-04-12 02:22 | 37.13614 | -88.02228 | 37279 ft | 453 kts | 30° |
| 2026-04-12 02:23 | 37.18619 | -87.97429 | 37281 ft | 453 kts | 30° |
| 2026-04-12 02:23 | 37.23619 | -87.92626 | 37283 ft | 453 kts | 30° |
| 2026-04-12 02:24 | 37.28616 | -87.87817 | 37279 ft | 453 kts | 30° |
| 2026-04-12 02:24 | 37.33595 | -87.82964 | 37281 ft | 455 kts | 34° |
| 2026-04-12 02:25 | 37.38148 | -87.77329 | 37280 ft | 461 kts | 39° |
| 2026-04-12 02:25 | 37.42567 | -87.71481 | 37272 ft | 461 kts | 39° |
| 2026-04-12 02:26 | 37.46997 | -87.65645 | 37278 ft | 461 kts | 39° |
| 2026-04-12 02:26 | 37.51448 | -87.59843 | 37277 ft | 460 kts | 38° |
| 2026-04-12 02:27 | 37.55905 | -87.54053 | 37280 ft | 460 kts | 38° |
| 2026-04-12 02:27 | 37.60359 | -87.48262 | 37280 ft | 460 kts | 38° |
| 2026-04-12 02:28 | 37.64813 | -87.42460 | 37289 ft | 460 kts | 38° |
| 2026-04-12 02:28 | 37.69261 | -87.36652 | 37295 ft | 460 kts | 38° |
| 2026-04-12 02:29 | 37.73703 | -87.30841 | 37296 ft | 460 kts | 38° |
| 2026-04-12 02:29 | 37.78145 | -87.25019 | 37296 ft | 460 kts | 38° |
| 2026-04-12 02:30 | 37.82580 | -87.19196 | 37298 ft | 460 kts | 38° |
| 2026-04-12 02:30 | 37.87015 | -87.13361 | 37294 ft | 460 kts | 38° |
| 2026-04-12 02:31 | 37.91445 | -87.07522 | 37293 ft | 460 kts | 38° |
| 2026-04-12 02:31 | 37.95873 | -87.01675 | 37292 ft | 460 kts | 38° |
| 2026-04-12 02:32 | 38.00298 | -86.95822 | 37300 ft | 460 kts | 38° |
| 2026-04-12 02:32 | 38.04722 | -86.89960 | 37296 ft | 460 kts | 38° |
| 2026-04-12 02:33 | 38.09143 | -86.84088 | 37301 ft | 460 kts | 38° |
| 2026-04-12 02:33 | 38.13564 | -86.78208 | 37300 ft | 460 kts | 38° |
| 2026-04-12 02:34 | 38.17983 | -86.72319 | 37306 ft | 461 kts | 38° |
| 2026-04-12 02:34 | 38.22405 | -86.66414 | 37303 ft | 461 kts | 38° |
| 2026-04-12 02:35 | 38.26831 | -86.60493 | 37312 ft | 461 kts | 38° |
| 2026-04-12 02:35 | 38.31224 | -86.54604 | 37311 ft | 462 kts | 38° |
| 2026-04-12 02:36 | 38.35649 | -86.48662 | 37312 ft | 462 kts | 38° |
| 2026-04-12 02:36 | 38.40073 | -86.42709 | 37311 ft | 463 kts | 38° |
| 2026-04-12 02:37 | 38.44495 | -86.36749 | 37310 ft | 463 kts | 38° |
| 2026-04-12 02:37 | 38.48921 | -86.30771 | 37306 ft | 463 kts | 38° |
| 2026-04-12 02:38 | 38.53370 | -86.24751 | 37314 ft | 463 kts | 38° |
| 2026-04-12 02:38 | 38.57761 | -86.18797 | 37311 ft | 463 kts | 38° |
| 2026-04-12 02:39 | 38.62181 | -86.12793 | 37307 ft | 464 kts | 38° |
| 2026-04-12 02:39 | 38.66600 | -86.06780 | 37307 ft | 464 kts | 38° |
| 2026-04-12 02:40 | 38.70971 | -86.00819 | 37310 ft | 464 kts | 38° |
| 2026-04-12 02:40 | 38.75391 | -85.94780 | 37308 ft | 465 kts | 39° |
| 2026-04-12 02:41 | 38.79810 | -85.88731 | 37312 ft | 465 kts | 39° |
| 2026-04-12 02:41 | 38.84226 | -85.82674 | 37316 ft | 465 kts | 39° |
| 2026-04-12 02:42 | 38.88642 | -85.76605 | 37311 ft | 465 kts | 39° |
| 2026-04-12 02:43 | 38.95261 | -85.67487 | 37320 ft | 466 kts | 39° |
| 2026-04-12 02:43 | 38.99674 | -85.61393 | 37312 ft | 466 kts | 39° |
| 2026-04-12 02:44 | 39.04081 | -85.55295 | 37321 ft | 466 kts | 39° |
| 2026-04-12 02:44 | 39.08488 | -85.49185 | 37319 ft | 466 kts | 39° |
| 2026-04-12 02:45 | 39.12894 | -85.43063 | 37331 ft | 466 kts | 39° |
| 2026-04-12 02:45 | 39.17296 | -85.36936 | 37334 ft | 466 kts | 39° |
| 2026-04-12 02:46 | 39.21678 | -85.30824 | 37341 ft | 466 kts | 39° |
| 2026-04-12 02:46 | 39.26080 | -85.24672 | 37345 ft | 466 kts | 39° |
| 2026-04-12 02:47 | 39.30475 | -85.18519 | 37344 ft | 466 kts | 39° |
| 2026-04-12 02:47 | 39.34122 | -85.13403 | 37342 ft | 466 kts | 39° |
| 2026-04-12 02:48 | 39.38480 | -85.07278 | 37341 ft | 466 kts | 39° |
| 2026-04-12 02:48 | 39.42867 | -85.01101 | 37342 ft | 466 kts | 39° |
| 2026-04-12 02:49 | 39.47248 | -84.94919 | 37346 ft | 466 kts | 39° |
| 2026-04-12 02:49 | 39.51629 | -84.88726 | 37347 ft | 466 kts | 39° |
| 2026-04-12 02:50 | 39.56025 | -84.82496 | 37350 ft | 466 kts | 39° |
| 2026-04-12 02:50 | 39.60395 | -84.76293 | 37351 ft | 466 kts | 39° |
| 2026-04-12 02:51 | 39.64763 | -84.70080 | 37359 ft | 466 kts | 39° |
| 2026-04-12 02:51 | 39.69133 | -84.63851 | 37361 ft | 466 kts | 39° |
| 2026-04-12 02:52 | 39.73497 | -84.57619 | 37363 ft | 466 kts | 39° |
| 2026-04-12 02:52 | 39.77859 | -84.51376 | 37358 ft | 467 kts | 39° |
| 2026-04-12 02:53 | 39.82222 | -84.45118 | 37371 ft | 467 kts | 39° |
| 2026-04-12 02:53 | 39.88755 | -84.35724 | 37377 ft | 467 kts | 39° |
| 2026-04-12 02:54 | 39.93140 | -84.29483 | 37378 ft | 465 kts | 37° |
| 2026-04-12 02:54 | 39.97734 | -84.23609 | 37381 ft | 462 kts | 35° |
| 2026-04-12 02:55 | 40.02391 | -84.17833 | 37376 ft | 462 kts | 35° |
| 2026-04-12 02:55 | 40.07031 | -84.12011 | 37372 ft | 463 kts | 35° |
| 2026-04-12 02:56 | 40.11568 | -84.06256 | 37370 ft | 463 kts | 36° |
| 2026-04-12 02:56 | 40.16180 | -84.00379 | 37365 ft | 463 kts | 36° |
| 2026-04-12 02:57 | 40.20796 | -83.94487 | 37370 ft | 464 kts | 36° |
| 2026-04-12 02:57 | 40.25308 | -83.88717 | 37374 ft | 464 kts | 36° |
| 2026-04-12 02:58 | 40.29956 | -83.82764 | 37379 ft | 464 kts | 36° |
| 2026-04-12 02:58 | 40.34568 | -83.76844 | 37375 ft | 464 kts | 36° |
| 2026-04-12 02:59 | 40.39209 | -83.70873 | 37376 ft | 464 kts | 36° |
| 2026-04-12 02:59 | 40.43818 | -83.64933 | 37376 ft | 464 kts | 36° |
| 2026-04-12 03:00 | 40.48334 | -83.59102 | 37377 ft | 464 kts | 36° |
| 2026-04-12 03:00 | 40.52993 | -83.53071 | 37381 ft | 464 kts | 36° |
| 2026-04-12 03:01 | 40.57585 | -83.47112 | 37380 ft | 464 kts | 36° |
| 2026-04-12 03:01 | 40.62154 | -83.41172 | 37380 ft | 463 kts | 36° |
| 2026-04-12 03:02 | 40.66731 | -83.35209 | 37389 ft | 463 kts | 36° |
| 2026-04-12 03:02 | 40.71210 | -83.29076 | 37382 ft | 470 kts | 41° |
| 2026-04-12 03:03 | 40.75249 | -83.22264 | 37385 ft | 473 kts | 44° |
| 2026-04-12 03:03 | 40.79145 | -83.15458 | 37389 ft | 472 kts | 44° |
| 2026-04-12 03:04 | 40.83190 | -83.08486 | 37385 ft | 471 kts | 43° |
| 2026-04-12 03:04 | 40.87200 | -83.01644 | 37390 ft | 471 kts | 43° |
| 2026-04-12 03:05 | 40.91209 | -82.94803 | 37397 ft | 471 kts | 43° |
| 2026-04-12 03:05 | 40.95077 | -82.88184 | 37397 ft | 470 kts | 43° |
| 2026-04-12 03:06 | 40.99068 | -82.81336 | 37400 ft | 470 kts | 43° |
| 2026-04-12 03:06 | 41.03054 | -82.74481 | 37405 ft | 470 kts | 43° |
| 2026-04-12 03:07 | 41.07033 | -82.67622 | 37404 ft | 469 kts | 43° |
| 2026-04-12 03:07 | 41.11007 | -82.60757 | 37405 ft | 469 kts | 43° |
| 2026-04-12 03:08 | 41.14882 | -82.53763 | 37400 ft | 477 kts | 51° |
| 2026-04-12 03:08 | 41.18032 | -82.46070 | 37415 ft | 482 kts | 54° |
| 2026-04-12 03:09 | 41.21095 | -82.38204 | 37426 ft | 481 kts | 54° |
| 2026-04-12 03:09 | 41.24216 | -82.30353 | 37426 ft | 481 kts | 53° |
| 2026-04-12 03:10 | 41.27365 | -82.22523 | 37437 ft | 480 kts | 53° |
| 2026-04-12 03:10 | 41.30510 | -82.14687 | 37433 ft | 480 kts | 53° |
| 2026-04-12 03:11 | 41.33644 | -82.06851 | 37434 ft | 480 kts | 53° |
| 2026-04-12 03:11 | 41.36513 | -81.98759 | 37431 ft | 486 kts | 59° |
| 2026-04-12 03:12 | 41.39077 | -81.90513 | 37428 ft | 487 kts | 59° |
| 2026-04-12 03:12 | 41.41664 | -81.82184 | 37426 ft | 486 kts | 59° |
| 2026-04-12 03:13 | 41.44288 | -81.73883 | 37426 ft | 486 kts | 59° |
| 2026-04-12 03:13 | 41.46924 | -81.65577 | 37437 ft | 486 kts | 59° |
| 2026-04-12 03:14 | 41.49551 | -81.57267 | 37437 ft | 487 kts | 59° |
| 2026-04-12 03:14 | 41.52170 | -81.48946 | 37448 ft | 487 kts | 59° |
| 2026-04-12 03:15 | 41.54788 | -81.40609 | 37439 ft | 487 kts | 59° |
| 2026-04-12 03:15 | 41.57405 | -81.32264 | 37439 ft | 487 kts | 59° |
| 2026-04-12 03:16 | 41.60017 | -81.23918 | 37448 ft | 487 kts | 59° |
| 2026-04-12 03:16 | 41.62626 | -81.15557 | 37441 ft | 488 kts | 59° |
| 2026-04-12 03:17 | 41.65230 | -81.07180 | 37441 ft | 488 kts | 59° |
| 2026-04-12 03:17 | 41.67764 | -80.99002 | 37433 ft | 488 kts | 59° |
| 2026-04-12 03:18 | 41.70355 | -80.90614 | 37430 ft | 488 kts | 59° |
| 2026-04-12 03:18 | 41.72939 | -80.82223 | 37436 ft | 488 kts | 59° |
| 2026-04-12 03:19 | 41.75517 | -80.73827 | 37420 ft | 488 kts | 59° |
| 2026-04-12 03:19 | 41.78090 | -80.65416 | 37426 ft | 488 kts | 60° |
| 2026-04-12 03:20 | 41.79123 | -80.61032 | 37417 ft | 499 kts | 70° |
| 2026-04-12 03:20 | 41.79645 | -80.56402 | 37438 ft | 508 kts | 79° |
| 2026-04-12 03:20 | 41.79664 | -80.51633 | 37421 ft | 516 kts | 90° |
| 2026-04-12 03:20 | 41.79235 | -80.46848 | 37433 ft | 518 kts | 93° |
| 2026-04-12 03:21 | 41.78170 | -80.37293 | 37413 ft | 519 kts | 94° |
| 2026-04-12 03:21 | 41.77111 | -80.27750 | 37418 ft | 517 kts | 93° |
| 2026-04-12 03:22 | 41.76115 | -80.18214 | 37431 ft | 516 kts | 92° |
| 2026-04-12 03:22 | 41.75141 | -80.08698 | 37426 ft | 515 kts | 92° |
| 2026-04-12 03:23 | 41.74178 | -79.99370 | 37432 ft | 515 kts | 92° |
| 2026-04-12 03:23 | 41.73186 | -79.89880 | 37446 ft | 514 kts | 92° |
| 2026-04-12 03:24 | 41.72187 | -79.80415 | 37460 ft | 513 kts | 92° |
| 2026-04-12 03:24 | 41.71180 | -79.70955 | 37468 ft | 513 kts | 92° |
| 2026-04-12 03:25 | 41.70167 | -79.61507 | 37467 ft | 513 kts | 92° |
| 2026-04-12 03:25 | 41.69146 | -79.52062 | 37477 ft | 513 kts | 92° |
| 2026-04-12 03:26 | 41.68118 | -79.42624 | 37477 ft | 513 kts | 92° |
| 2026-04-12 03:26 | 41.67082 | -79.33184 | 37467 ft | 514 kts | 92° |
| 2026-04-12 03:27 | 41.66044 | -79.23792 | 37475 ft | 514 kts | 93° |
| 2026-04-12 03:27 | 41.64992 | -79.14344 | 37467 ft | 514 kts | 92° |
| 2026-04-12 03:28 | 41.63935 | -79.04906 | 37466 ft | 514 kts | 93° |
| 2026-04-12 03:28 | 41.62871 | -78.95458 | 37449 ft | 514 kts | 93° |
| 2026-04-12 03:29 | 41.61800 | -78.86019 | 37446 ft | 514 kts | 93° |
| 2026-04-12 03:29 | 41.60720 | -78.76579 | 37442 ft | 514 kts | 93° |
| 2026-04-12 03:30 | 41.59634 | -78.67149 | 37433 ft | 514 kts | 93° |
| 2026-04-12 03:30 | 41.58724 | -78.59309 | 37429 ft | 514 kts | 93° |
| 2026-04-12 03:31 | 41.57624 | -78.49892 | 37451 ft | 513 kts | 93° |
| 2026-04-12 03:31 | 41.56517 | -78.40474 | 37449 ft | 513 kts | 93° |
| 2026-04-12 03:32 | 41.55953 | -78.35704 | 37310 ft | 515 kts | 93° |
| 2026-04-12 03:32 | 41.55401 | -78.31047 | 37039 ft | 517 kts | 93° |
| 2026-04-12 03:32 | 41.54828 | -78.26247 | 36771 ft | 513 kts | 93° |
| 2026-04-12 03:32 | 41.54266 | -78.21559 | 36522 ft | 511 kts | 93° |
| 2026-04-12 03:33 | 41.53708 | -78.16911 | 36270 ft | 511 kts | 93° |
| 2026-04-12 03:33 | 41.53145 | -78.12230 | 36013 ft | 511 kts | 93° |
| 2026-04-12 03:33 | 41.52582 | -78.07559 | 35776 ft | 511 kts | 94° |
| 2026-04-12 03:33 | 41.52015 | -78.02880 | 35517 ft | 508 kts | 94° |
| 2026-04-12 03:34 | 41.51451 | -77.98252 | 35260 ft | 505 kts | 93° |
| 2026-04-12 03:34 | 41.50865 | -77.93611 | 35027 ft | 508 kts | 94° |
| 2026-04-12 03:34 | 41.50226 | -77.88964 | 34805 ft | 511 kts | 95° |
| 2026-04-12 03:34 | 41.49556 | -77.84295 | 34566 ft | 514 kts | 96° |
| 2026-04-12 03:35 | 41.48874 | -77.79605 | 34319 ft | 516 kts | 96° |
| 2026-04-12 03:35 | 41.48187 | -77.74888 | 34061 ft | 521 kts | 96° |
| 2026-04-12 03:35 | 41.47499 | -77.70131 | 33801 ft | 524 kts | 96° |
| 2026-04-12 03:35 | 41.46811 | -77.65379 | 33528 ft | 518 kts | 96° |
| 2026-04-12 03:36 | 41.45457 | -77.56009 | 33455 ft | 513 kts | 96° |
| 2026-04-12 03:36 | 41.44115 | -77.46671 | 33389 ft | 515 kts | 96° |
| 2026-04-12 03:37 | 41.43433 | -77.41965 | 33108 ft | 519 kts | 96° |
| 2026-04-12 03:37 | 41.42746 | -77.37252 | 32837 ft | 517 kts | 96° |
| 2026-04-12 03:37 | 41.42059 | -77.32569 | 32581 ft | 513 kts | 96° |
| 2026-04-12 03:37 | 41.41376 | -77.27926 | 32293 ft | 512 kts | 96° |
| 2026-04-12 03:38 | 41.40692 | -77.23277 | 32050 ft | 512 kts | 96° |
| 2026-04-12 03:38 | 41.40006 | -77.18622 | 31807 ft | 512 kts | 96° |
| 2026-04-12 03:38 | 41.39319 | -77.13970 | 31560 ft | 512 kts | 96° |
| 2026-04-12 03:38 | 41.38629 | -77.09312 | 31315 ft | 512 kts | 96° |
| 2026-04-12 03:39 | 41.37937 | -77.04660 | 31085 ft | 513 kts | 96° |
| 2026-04-12 03:39 | 41.37243 | -77.00007 | 30834 ft | 513 kts | 96° |
| 2026-04-12 03:39 | 41.36548 | -76.95360 | 30590 ft | 513 kts | 96° |
| 2026-04-12 03:39 | 41.35848 | -76.90697 | 30316 ft | 513 kts | 97° |
| 2026-04-12 03:40 | 41.35148 | -76.86042 | 30050 ft | 512 kts | 97° |
| 2026-04-12 03:40 | 41.34468 | -76.81532 | 29781 ft | 512 kts | 97° |
| 2026-04-12 03:40 | 41.33748 | -76.76888 | 29501 ft | 514 kts | 99° |
| 2026-04-12 03:40 | 41.32738 | -76.72309 | 29221 ft | 517 kts | 105° |
| 2026-04-12 03:41 | 41.31525 | -76.67801 | 28960 ft | 519 kts | 107° |
| 2026-04-12 03:41 | 41.30236 | -76.63316 | 28698 ft | 519 kts | 108° |
| 2026-04-12 03:41 | 41.28962 | -76.58887 | 28428 ft | 520 kts | 108° |
| 2026-04-12 03:41 | 41.27696 | -76.54392 | 28011 ft | 518 kts | 107° |
| 2026-04-12 03:42 | 41.26460 | -76.49900 | 26814 ft | 515 kts | 107° |
| 2026-04-12 03:42 | 41.25259 | -76.45453 | 25846 ft | 507 kts | 107° |
| 2026-04-12 03:42 | 41.24076 | -76.41041 | 25027 ft | 495 kts | 108° |
| 2026-04-12 03:42 | 41.22930 | -76.36772 | 24272 ft | 485 kts | 108° |
| 2026-04-12 03:43 | 41.21805 | -76.32592 | 23434 ft | 477 kts | 108° |
| 2026-04-12 03:43 | 41.20696 | -76.28490 | 22638 ft | 466 kts | 108° |
| 2026-04-12 03:43 | 41.19608 | -76.24477 | 21917 ft | 462 kts | 108° |
| 2026-04-12 03:43 | 41.18498 | -76.20389 | 21203 ft | 479 kts | 109° |
| 2026-04-12 03:44 | 41.17362 | -76.16216 | 20439 ft | 481 kts | 109° |
| 2026-04-12 03:44 | 41.16240 | -76.12105 | 19689 ft | 479 kts | 109° |
| 2026-04-12 03:44 | 41.15106 | -76.07957 | 19014 ft | 476 kts | 109° |
| 2026-04-12 03:44 | 41.13986 | -76.03868 | 18591 ft | 471 kts | 109° |
| 2026-04-12 03:45 | 41.12866 | -75.99787 | 17775 ft | 470 kts | 109° |
| 2026-04-12 03:45 | 41.11757 | -75.95756 | 17279 ft | 460 kts | 109° |
| 2026-04-12 03:45 | 41.10663 | -75.91786 | 16629 ft | 455 kts | 109° |
| 2026-04-12 03:45 | 41.09587 | -75.87884 | 16174 ft | 446 kts | 109° |
| 2026-04-12 03:46 | 41.08531 | -75.84058 | 15765 ft | 438 kts | 109° |
| 2026-04-12 03:46 | 41.07491 | -75.80295 | 15375 ft | 433 kts | 109° |
| 2026-04-12 03:46 | 41.06450 | -75.76531 | 14991 ft | 437 kts | 109° |
| 2026-04-12 03:46 | 41.05401 | -75.72745 | 14600 ft | 439 kts | 109° |
| 2026-04-12 03:47 | 41.04352 | -75.68966 | 14207 ft | 435 kts | 109° |
| 2026-04-12 03:47 | 41.03311 | -75.65218 | 13752 ft | 431 kts | 109° |
| 2026-04-12 03:47 | 41.02279 | -75.61510 | 13338 ft | 428 kts | 109° |
| 2026-04-12 03:47 | 41.01254 | -75.57833 | 12944 ft | 424 kts | 109° |
| 2026-04-12 03:48 | 41.00235 | -75.54188 | 12618 ft | 421 kts | 109° |
| 2026-04-12 03:48 | 40.99221 | -75.50564 | 12291 ft | 418 kts | 109° |
| 2026-04-12 03:48 | 40.98217 | -75.46979 | 11951 ft | 412 kts | 109° |
| 2026-04-12 03:48 | 40.97237 | -75.43483 | 11648 ft | 401 kts | 109° |
| 2026-04-12 03:49 | 40.96292 | -75.40117 | 11375 ft | 390 kts | 109° |
| 2026-04-12 03:49 | 40.95356 | -75.36787 | 11062 ft | 382 kts | 109° |
| 2026-04-12 03:49 | 40.94438 | -75.33522 | 10760 ft | 375 kts | 109° |
| 2026-04-12 03:49 | 40.93537 | -75.30322 | 10471 ft | 368 kts | 109° |
| 2026-04-12 03:50 | 40.92651 | -75.27179 | 10173 ft | 362 kts | 109° |
| 2026-04-12 03:50 | 40.91780 | -75.24092 | 9931 ft | 354 kts | 109° |
| 2026-04-12 03:50 | 40.90939 | -75.21117 | 9917 ft | 340 kts | 109° |
| 2026-04-12 03:50 | 40.90128 | -75.18246 | 9900 ft | 326 kts | 109° |
| 2026-04-12 03:51 | 40.89346 | -75.15488 | 9818 ft | 315 kts | 109° |
| 2026-04-12 03:51 | 40.88589 | -75.12818 | 9750 ft | 305 kts | 109° |
| 2026-04-12 03:51 | 40.87853 | -75.10221 | 9563 ft | 300 kts | 109° |
| 2026-04-12 03:51 | 40.87125 | -75.07642 | 9275 ft | 298 kts | 109° |
| 2026-04-12 03:52 | 40.86403 | -75.05080 | 8985 ft | 297 kts | 109° |
| 2026-04-12 03:52 | 40.85683 | -75.02529 | 8723 ft | 295 kts | 109° |
| 2026-04-12 03:52 | 40.84977 | -75.00026 | 8647 ft | 289 kts | 109° |
| 2026-04-12 03:52 | 40.84282 | -74.97570 | 8526 ft | 289 kts | 109° |
| 2026-04-12 03:53 | 40.83565 | -74.95037 | 8313 ft | 293 kts | 109° |
| 2026-04-12 03:53 | 40.82849 | -74.92512 | 8154 ft | 295 kts | 109° |
| 2026-04-12 03:53 | 40.81979 | -74.90079 | 7942 ft | 297 kts | 120° |
| 2026-04-12 03:53 | 40.80900 | -74.87777 | 7738 ft | 293 kts | 123° |
| 2026-04-12 03:54 | 40.79785 | -74.85547 | 7550 ft | 288 kts | 123° |
| 2026-04-12 03:54 | 40.78683 | -74.83353 | 7355 ft | 285 kts | 123° |
| 2026-04-12 03:54 | 40.77595 | -74.81168 | 7172 ft | 284 kts | 123° |
| 2026-04-12 03:54 | 40.76522 | -74.78992 | 6996 ft | 282 kts | 123° |
| 2026-04-12 03:55 | 40.75459 | -74.76822 | 6818 ft | 281 kts | 123° |
| 2026-04-12 03:55 | 40.74402 | -74.74653 | 6626 ft | 280 kts | 122° |
| 2026-04-12 03:55 | 40.73354 | -74.72498 | 6440 ft | 278 kts | 122° |
| 2026-04-12 03:55 | 40.72315 | -74.70356 | 6251 ft | 277 kts | 122° |
| 2026-04-12 03:56 | 40.71281 | -74.68224 | 6081 ft | 276 kts | 122° |
| 2026-04-12 03:56 | 40.70250 | -74.66095 | 5899 ft | 274 kts | 122° |
| 2026-04-12 03:56 | 40.69229 | -74.63987 | 5730 ft | 273 kts | 122° |
| 2026-04-12 03:56 | 40.68205 | -74.61874 | 5548 ft | 272 kts | 122° |
| 2026-04-12 03:57 | 40.67187 | -74.59775 | 5386 ft | 272 kts | 122° |
| 2026-04-12 03:57 | 40.66171 | -74.57681 | 5199 ft | 271 kts | 122° |
| 2026-04-12 03:57 | 40.65161 | -74.55599 | 5028 ft | 270 kts | 122° |
| 2026-04-12 03:57 | 40.64149 | -74.53515 | 4856 ft | 269 kts | 121° |
| 2026-04-12 03:58 | 40.63143 | -74.51445 | 4688 ft | 268 kts | 121° |
| 2026-04-12 03:58 | 40.62175 | -74.49453 | 4512 ft | 267 kts | 121° |
| 2026-04-12 03:58 | 40.61174 | -74.47396 | 4334 ft | 266 kts | 121° |
| 2026-04-12 03:58 | 40.60174 | -74.45342 | 4170 ft | 265 kts | 121° |
| 2026-04-12 03:59 | 40.59184 | -74.43309 | 4003 ft | 263 kts | 121° |
| 2026-04-12 03:59 | 40.58203 | -74.41295 | 3839 ft | 261 kts | 121° |
| 2026-04-12 03:59 | 40.57226 | -74.39289 | 3659 ft | 259 kts | 121° |
| 2026-04-12 03:59 | 40.56259 | -74.37308 | 3489 ft | 255 kts | 121° |
| 2026-04-12 04:00 | 40.55308 | -74.35364 | 3317 ft | 250 kts | 120° |
| 2026-04-12 04:00 | 40.54377 | -74.33460 | 3167 ft | 245 kts | 120° |
| 2026-04-12 04:00 | 40.53479 | -74.31624 | 3013 ft | 240 kts | 119° |
| 2026-04-12 04:00 | 40.52936 | -74.29607 | 2844 ft | 227 kts | 88° |
| 2026-04-12 04:01 | 40.53276 | -74.27693 | 2795 ft | 208 kts | 54° |
| 2026-04-12 04:01 | 40.54250 | -74.26448 | 2825 ft | 188 kts | 34° |
| 2026-04-12 04:01 | 40.55296 | -74.25533 | 2750 ft | 179 kts | 30° |
| 2026-04-12 04:01 | 40.56381 | -74.24715 | 2550 ft | 177 kts | 26° |
| 2026-04-12 04:02 | 40.57474 | -74.23982 | 2314 ft | 175 kts | 25° |
| 2026-04-12 04:02 | 40.59598 | -74.22614 | 1859 ft | 165 kts | 24° |
| 2026-04-12 04:02 | 40.60599 | -74.21976 | 1642 ft | 153 kts | 24° |
| 2026-04-12 04:03 | 40.61500 | -74.21403 | 1474 ft | 137 kts | 24° |
| 2026-04-12 04:03 | 40.62332 | -74.20874 | 1308 ft | 130 kts | 24° |
| 2026-04-12 04:03 | 40.63156 | -74.20367 | 1177 ft | 133 kts | 24° |
| 2026-04-12 04:03 | 40.64006 | -74.19833 | 1029 ft | 141 kts | 24° |
| 2026-04-12 04:04 | 40.64910 | -74.19252 | 795 ft | 143 kts | 25° |
| 2026-04-12 04:04 | 40.65775 | -74.18709 | 524 ft | 134 kts | 25° |
| 2026-04-12 04:04 | 40.66611 | -74.18166 | 337 ft | 136 kts | 25° |
| 2026-04-12 04:04 | 40.67462 | -74.17621 | 217 ft | 135 kts | 25° |
| 2026-04-12 04:05 | 40.68318 | -74.17075 | 35 ft | 135 kts | 24° |
| 2026-04-12 04:05 | 40.69086 | -74.16595 | 22 ft | 106 kts | 27° |
| 2026-04-12 04:05 | 40.69607 | -74.16250 | 22 ft | 62 kts | 25° |
| 2026-04-12 04:05 | 40.69859 | -74.16092 | 21 ft | 32 kts | 28° |
| 2026-04-12 04:06 | 40.70001 | -74.16081 | 21 ft | 17 kts | 311° |
| 2026-04-12 04:06 | 40.70049 | -74.16223 | 22 ft | 17 kts | 279° |
| 2026-04-12 04:06 | 40.70057 | -74.16374 | 19 ft | 16 kts | 274° |
| 2026-04-12 04:06 | 40.70067 | -74.16519 | 20 ft | 16 kts | 276° |
| 2026-04-12 04:07 | 40.70079 | -74.16675 | 21 ft | 19 kts | 275° |
| 2026-04-12 04:07 | 40.70021 | -74.16750 | 21 ft | 14 kts | 185° |
| 2026-04-12 04:07 | 40.69903 | -74.16761 | 21 ft | 20 kts | 184° |
| 2026-04-12 04:07 | 40.69758 | -74.16813 | 21 ft | 24 kts | 206° |
| 2026-04-12 04:08 | 40.69648 | -74.16904 | 21 ft | 16 kts | 243° |
| 2026-04-12 04:08 | 40.69605 | -74.17052 | 21 ft | 16 kts | 250° |
| 2026-04-12 04:08 | 40.69543 | -74.17095 | 21 ft | 12 kts | 187° |
| 2026-04-12 04:08 | 40.69508 | -74.17188 | 21 ft | 13 kts | 253° |
| 2026-04-12 04:09 | 40.69481 | -74.17250 | 23 ft | 7 kts | 235° |
| 2026-04-12 04:09 | 40.69473 | -74.17266 | 21 ft | 0 kts | 235° |